Seafalcon — 9HA2814 — position and weather

sailwx.info

Track history (hours):
 
Tides and Currents Weather Stations Pressure Air Temp Water Temp Dewpoint Dewpoint Depression Visibility Wind Speed Wind Dir Waves Ship Positions

Seafalcon

Last reported at 2015-Jul-06 21:21 UTC. Time now 2015-Jul-08 00:05 UTC.
Position N 37°49' E 020°09'.

Length 250 m; draft 8.4 m.

Type: Tanker. MMSI: 256078000.

Date/timePositionNaut miles runAvg speedWind from/ knotsBaromVisibWave heightAir tempDewpointWater temp
2015-Jul-06 21:21N 37°49' E 020°09'911.4
2015-Jul-06 20:33N 37°56' E 020°01'1111.3
2015-Jul-06 19:33N 38°04' E 019°51'3911.2
2015-Jul-06 16:04N 38°32' E 019°17'  
2015-Jun-30 19:05N 40°54' E 028°45'712.0
2015-Jun-30 18:32N 40°56' E 028°54'5 5.5
2015-Jun-30 17:33N 40°59' E 028°59'20 9.7
2015-Jun-30 15:29N 41°18' E 029°09'10 9.3
2015-Jun-30 14:23N 41°25' E 029°18'1012.6
2015-Jun-30 13:33N 41°30' E 029°31'38712.5
2015-Jun-29 06:29N 44°25' E 037°22'1112.4
2015-Jun-29 05:33N 44°30' E 037°37'8 7.9
2015-Jun-29 04:33N 44°37' E 037°43'1 0.5
2015-Jun-29 03:33N 44°37' E 037°42'0 0.4
2015-Jun-29 02:33N 44°37' E 037°42'3 2.6
2015-Jun-29 01:33N 44°36' E 037°39'12 0.4
2015-Jun-27 20:33N 44°35' E 037°55'0 0.0
2015-Jun-27 19:33N 44°35' E 037°55'0 0.0
2015-Jun-27 18:21N 44°35' E 037°55'0 0.0
2015-Jun-27 17:30N 44°35' E 037°55'0 0.0
2015-Jun-27 16:33N 44°35' E 037°55'0 0.0
2015-Jun-27 15:33N 44°35' E 037°55'0 0.0
2015-Jun-27 14:33N 44°35' E 037°55'0 0.0
2015-Jun-27 13:33N 44°35' E 037°55'0 0.0
2015-Jun-27 12:33N 44°35' E 037°55'0 0.0
2015-Jun-27 11:33N 44°35' E 037°55'0 0.0
2015-Jun-27 10:33N 44°35' E 037°55'0 0.0
2015-Jun-27 09:33N 44°35' E 037°55'0 0.0
2015-Jun-27 08:33N 44°35' E 037°55'0 0.0
2015-Jun-27 07:33N 44°35' E 037°55'0 0.0
2015-Jun-27 06:30N 44°35' E 037°55'0 0.0
2015-Jun-26 22:12N 44°35' E 037°55'0 0.0
2015-Jun-26 21:30N 44°35' E 037°55'  
Track history (hours):
 
Tides and Currents Weather Stations Pressure Air Temp Water Temp Dewpoint Dewpoint Depression Visibility Wind Speed Wind Dir Waves Ship Positions

Seafalcon

Last reported at 2015-Jul-06 21:21 UTC. Time now 2015-Jul-08 00:05 UTC.
Position N 37°49' E 020°09'.

Length 250 m; draft 8.4 m.

Type: Tanker. MMSI: 256078000.

Date/timePositionNaut miles runAvg speedWind from/ knotsBaromVisibWave heightAir tempDewpointWater temp
2015-Jul-06 21:21N 37°49' E 020°09'911.4
2015-Jul-06 20:33N 37°56' E 020°01'1111.3
2015-Jul-06 19:33N 38°04' E 019°51'3911.2
2015-Jul-06 16:04N 38°32' E 019°17'  
2015-Jun-30 19:05N 40°54' E 028°45'712.0
2015-Jun-30 18:32N 40°56' E 028°54'5 5.5
2015-Jun-30 17:33N 40°59' E 028°59'20 9.7
2015-Jun-30 15:29N 41°18' E 029°09'10 9.3
2015-Jun-30 14:23N 41°25' E 029°18'1012.6
2015-Jun-30 13:33N 41°30' E 029°31'38712.5
2015-Jun-29 06:29N 44°25' E 037°22'1112.4
2015-Jun-29 05:33N 44°30' E 037°37'8 7.9
2015-Jun-29 04:33N 44°37' E 037°43'1 0.5
2015-Jun-29 03:33N 44°37' E 037°42'0 0.4
2015-Jun-29 02:33N 44°37' E 037°42'3 2.6
2015-Jun-29 01:33N 44°36' E 037°39'12 0.4
2015-Jun-27 20:33N 44°35' E 037°55'0 0.0
2015-Jun-27 19:33N 44°35' E 037°55'0 0.0
2015-Jun-27 18:21N 44°35' E 037°55'0 0.0
2015-Jun-27 17:30N 44°35' E 037°55'0 0.0
2015-Jun-27 16:33N 44°35' E 037°55'0 0.0
2015-Jun-27 15:33N 44°35' E 037°55'0 0.0
2015-Jun-27 14:33N 44°35' E 037°55'0 0.0
2015-Jun-27 13:33N 44°35' E 037°55'0 0.0
2015-Jun-27 12:33N 44°35' E 037°55'0 0.0
2015-Jun-27 11:33N 44°35' E 037°55'0 0.0
2015-Jun-27 10:33N 44°35' E 037°55'0 0.0
2015-Jun-27 09:33N 44°35' E 037°55'0 0.0
2015-Jun-27 08:33N 44°35' E 037°55'0 0.0
2015-Jun-27 07:33N 44°35' E 037°55'0 0.0
2015-Jun-27 06:30N 44°35' E 037°55'0 0.0
2015-Jun-26 22:12N 44°35' E 037°55'0 0.0
2015-Jun-26 21:30N 44°35' E 037°55'  

Dump ship's entire track history